createdAt,value
2023-01-20T00:01:29.770Z,6.97
2023-01-20T00:03:57.634Z,8.23
2023-01-20T00:06:30.406Z,8.50
2023-01-20T00:08:58.986Z,8.63
2023-01-20T00:11:26.891Z,5.50
2023-01-20T00:13:55.848Z,6.18
2023-01-20T00:16:23.815Z,7.03
2023-01-20T00:18:51.416Z,7.28
2023-01-20T00:21:19.036Z,5.60
2023-01-20T00:23:46.920Z,6.28
2023-01-20T00:26:16.430Z,6.07
2023-01-20T00:28:44.417Z,3.60
2023-01-20T00:31:19.676Z,5.78
2023-01-20T00:33:47.873Z,7.00
2023-01-20T00:36:16.145Z,6.55
2023-01-20T00:38:43.590Z,4.43
2023-01-20T00:41:10.991Z,3.30
2023-01-20T00:43:38.580Z,3.28
2023-01-20T00:46:06.783Z,3.03
2023-01-20T00:48:34.438Z,4.45
2023-01-20T00:51:01.889Z,3.50
2023-01-20T00:53:29.718Z,3.45
2023-01-20T00:55:57.233Z,5.03
2023-01-20T00:58:24.914Z,3.80
2023-01-20T01:00:53.518Z,3.78
2023-01-20T01:03:21.182Z,5.07
2023-01-20T01:05:48.648Z,6.00
2023-01-20T01:08:16.074Z,4.40
2023-01-20T01:10:43.777Z,5.40
2023-01-20T01:13:11.374Z,2.88
2023-01-20T01:15:38.839Z,3.78
2023-01-20T01:18:06.270Z,3.72
2023-01-20T01:20:33.732Z,4.43
2023-01-20T01:23:01.112Z,3.30
2023-01-20T01:25:28.512Z,5.55
2023-01-20T01:27:55.966Z,6.88
2023-01-20T01:30:23.581Z,4.95
2023-01-20T01:32:50.958Z,5.35
2023-01-20T01:35:18.399Z,3.85
2023-01-20T01:37:45.799Z,4.05
2023-01-20T01:40:13.367Z,5.57
2023-01-20T01:42:42.861Z,3.28
2023-01-20T01:45:13.968Z,1.60
2023-01-20T01:47:47.263Z,2.95
2023-01-20T01:50:17.099Z,2.33
2023-01-20T01:52:49.443Z,2.42
2023-01-20T01:55:18.997Z,3.33
2023-01-20T01:57:46.913Z,3.25
2023-01-20T02:00:14.500Z,2.28
2023-01-20T02:02:43.832Z,4.57
2023-01-20T02:05:12.697Z,5.93
2023-01-20T02:07:40.446Z,2.97
2023-01-20T02:10:08.040Z,4.88
2023-01-20T02:12:35.511Z,2.97
2023-01-20T02:15:03.561Z,4.45
2023-01-20T02:17:33.528Z,3.15
2023-01-20T02:20:03.960Z,3.65
2023-01-20T02:22:44.234Z,2.40
2023-01-20T02:25:30.160Z,4.57
2023-01-20T02:28:06.499Z,3.17
2023-01-20T02:30:54.305Z,4.07
2023-01-20T02:33:30.992Z,3.47
2023-01-20T02:35:58.453Z,3.80
2023-01-20T02:38:34.964Z,2.95
2023-01-20T02:41:11.465Z,5.43
2023-01-20T02:43:51.751Z,3.05
2023-01-20T02:46:24.121Z,4.10
2023-01-20T02:48:54.546Z,6.13
2023-01-20T02:51:24.523Z,2.75
2023-01-20T02:53:54.380Z,3.47
2023-01-20T02:56:23.908Z,3.05
2023-01-20T02:58:53.175Z,3.38
2023-01-20T03:01:32.363Z,2.20
2023-01-20T03:04:01.068Z,5.45
2023-01-20T03:06:31.010Z,4.90
2023-01-20T03:09:00.114Z,4.30
2023-01-20T03:11:29.316Z,4.70
2023-01-20T03:14:02.544Z,4.68
2023-01-20T03:16:30.595Z,3.47
2023-01-20T03:18:58.003Z,2.88
2023-01-20T03:21:25.574Z,4.97
2023-01-20T03:23:54.820Z,4.75
2023-01-20T03:26:23.846Z,4.95
2023-01-20T03:28:51.540Z,4.13
2023-01-20T03:31:21.640Z,3.28
2023-01-20T03:33:49.948Z,4.18
2023-01-20T03:36:17.898Z,3.72
2023-01-20T03:38:46.267Z,4.05
2023-01-20T03:41:18.281Z,3.92
2023-01-20T03:43:50.267Z,3.05
2023-01-20T03:46:25.856Z,2.50
2023-01-20T03:48:59.173Z,3.33
2023-01-20T03:51:31.372Z,4.40
2023-01-20T03:54:08.601Z,4.13
2023-01-20T03:56:43.324Z,2.58
2023-01-20T03:59:13.065Z,2.92
2023-01-20T04:01:43.062Z,3.50
2023-01-20T04:04:12.328Z,3.00
2023-01-20T04:06:41.441Z,3.17
2023-01-20T04:09:10.444Z,5.03
2023-01-20T04:11:37.860Z,4.10
2023-01-20T04:14:05.800Z,2.85
2023-01-20T04:16:33.413Z,2.92
2023-01-20T04:19:00.934Z,4.30
2023-01-20T04:21:40.647Z,4.88
2023-01-20T04:24:12.492Z,5.43
2023-01-20T04:26:39.984Z,10.52
2023-01-20T04:29:13.005Z,10.63
2023-01-20T04:31:40.929Z,8.85
2023-01-20T04:34:08.466Z,7.88
2023-01-20T04:36:36.004Z,9.75
2023-01-20T04:39:03.426Z,9.30
2023-01-20T04:41:30.999Z,8.35
2023-01-20T04:43:58.377Z,9.70
2023-01-20T04:46:25.872Z,6.93
2023-01-20T04:48:53.607Z,7.90
2023-01-20T04:51:21.279Z,8.60
2023-01-20T04:53:48.707Z,8.30
2023-01-20T04:56:16.400Z,14.00
2023-01-20T04:58:44.093Z,13.52
2023-01-20T05:01:11.588Z,17.85
2023-01-20T05:03:39.105Z,13.90
2023-01-20T05:06:06.782Z,8.38
2023-01-20T05:08:34.271Z,5.32
2023-01-20T05:11:01.685Z,7.07
2023-01-20T05:13:29.782Z,5.75
2023-01-20T05:15:57.436Z,5.85
2023-01-20T05:18:24.925Z,7.60
2023-01-20T05:20:52.298Z,10.63
2023-01-20T05:23:19.756Z,8.93
2023-01-20T05:25:53.885Z,8.63
2023-01-20T05:28:21.451Z,5.40
2023-01-20T05:30:49.201Z,5.75
2023-01-20T05:33:16.687Z,9.93
2023-01-20T05:35:44.109Z,6.00
2023-01-20T05:38:11.890Z,7.50
2023-01-20T05:40:39.285Z,4.85
2023-01-20T05:43:06.791Z,13.45
2023-01-20T05:45:34.204Z,16.55
2023-01-20T05:48:01.834Z,20.42
2023-01-20T05:50:29.895Z,17.88
2023-01-20T05:52:57.359Z,26.25
2023-01-20T05:55:24.775Z,23.35
2023-01-20T05:57:52.408Z,23.50
2023-01-20T06:00:20.163Z,24.45
2023-01-20T06:02:47.639Z,25.90
2023-01-20T06:05:15.275Z,28.42
2023-01-20T06:07:43.523Z,25.85
2023-01-20T06:10:11.344Z,22.58
2023-01-20T06:12:38.845Z,16.88
2023-01-20T06:15:06.709Z,14.77
2023-01-20T06:17:34.168Z,17.30
2023-01-20T06:20:01.690Z,13.38
2023-01-20T06:22:29.155Z,11.98
2023-01-20T06:24:56.656Z,22.02
2023-01-20T06:27:24.140Z,32.67
2023-01-20T06:29:51.635Z,13.57
2023-01-20T06:32:19.087Z,14.48
2023-01-20T06:34:46.554Z,10.90
2023-01-20T06:37:14.137Z,14.93
2023-01-20T06:39:41.580Z,17.38
2023-01-20T06:42:09.452Z,14.98
2023-01-20T06:44:37.739Z,12.40
2023-01-20T06:47:05.203Z,7.57
2023-01-20T06:49:33.685Z,8.88
2023-01-20T06:52:01.172Z,6.25
2023-01-20T06:54:28.699Z,10.93
2023-01-20T06:56:56.127Z,6.63
2023-01-20T06:59:23.565Z,7.78
2023-01-20T07:01:51.470Z,15.63
2023-01-20T07:04:18.952Z,10.38
2023-01-20T07:06:46.368Z,57.72
2023-01-20T07:09:14.401Z,64.15
2023-01-20T07:11:41.912Z,39.47
2023-01-20T07:14:10.077Z,40.25
2023-01-20T07:16:37.594Z,18.05
2023-01-20T07:19:05.351Z,11.32
2023-01-20T07:21:32.832Z,9.18
2023-01-20T07:24:01.736Z,12.70
2023-01-20T07:26:29.632Z,14.13
2023-01-20T07:28:58.658Z,29.58
2023-01-20T07:31:27.628Z,21.05
2023-01-20T07:33:56.465Z,8.57
2023-01-20T07:36:24.408Z,5.60
2023-01-20T07:38:52.636Z,6.57
2023-01-20T07:41:21.216Z,8.48
2023-01-20T07:43:50.701Z,10.98
2023-01-20T07:46:18.210Z,7.85
2023-01-20T07:48:45.631Z,7.38
2023-01-20T07:51:14.118Z,8.18
2023-01-20T07:53:46.547Z,10.25
2023-01-20T07:56:21.619Z,14.60
2023-01-20T07:58:50.642Z,10.23
2023-01-20T08:01:22.040Z,11.05
2023-01-20T08:03:50.053Z,10.88
2023-01-20T08:06:19.022Z,13.07
2023-01-20T08:08:46.578Z,10.60
2023-01-20T08:11:14.926Z,11.43
2023-01-20T08:13:42.781Z,13.20
2023-01-20T08:16:11.461Z,10.82
2023-01-20T08:18:39.293Z,15.75
2023-01-20T08:21:08.398Z,12.05
2023-01-20T08:23:36.625Z,15.93
2023-01-20T08:26:05.077Z,15.77
2023-01-20T08:28:36.423Z,17.50
2023-01-20T08:31:08.062Z,20.15
2023-01-20T08:33:35.707Z,17.23
2023-01-20T08:36:07.805Z,26.35
2023-01-20T08:38:35.875Z,13.27
2023-01-20T08:41:06.769Z,15.13
2023-01-20T08:43:34.316Z,14.75
2023-01-20T08:46:02.873Z,17.88
2023-01-20T08:48:30.347Z,20.85
2023-01-20T08:50:58.116Z,15.30
2023-01-20T08:53:26.185Z,14.63
2023-01-20T08:56:00.682Z,20.58
2023-01-20T08:58:28.621Z,15.38
2023-01-20T09:00:56.401Z,14.90
2023-01-20T09:03:24.394Z,17.98
2023-01-20T09:05:51.855Z,16.13
2023-01-20T09:08:20.055Z,11.30
2023-01-20T09:10:47.652Z,10.85
2023-01-20T09:13:15.449Z,15.13
2023-01-20T09:15:43.057Z,12.65
2023-01-20T09:18:10.494Z,16.75
2023-01-20T09:20:38.041Z,15.45
2023-01-20T09:23:05.848Z,12.80
2023-01-20T09:25:33.348Z,17.33
2023-01-20T09:28:01.605Z,15.85
2023-01-20T09:30:29.179Z,15.30
2023-01-20T09:33:00.142Z,18.92
2023-01-20T09:35:27.611Z,17.25
2023-01-20T09:38:13.803Z,11.98
2023-01-20T09:41:19.980Z,12.90
2023-01-20T09:43:56.767Z,13.90
2023-01-20T09:46:24.335Z,10.52
2023-01-20T09:49:16.049Z,12.05
2023-01-20T09:52:10.149Z,10.52
2023-01-20T09:54:46.424Z,14.15
2023-01-20T09:57:14.566Z,14.50
2023-01-20T09:59:45.658Z,13.05
2023-01-20T10:02:18.494Z,11.63
2023-01-20T10:04:54.135Z,13.18
2023-01-20T10:07:27.467Z,12.18
2023-01-20T10:09:58.015Z,10.75
2023-01-20T10:12:31.419Z,13.27
2023-01-20T10:15:14.284Z,11.40
2023-01-20T10:17:56.009Z,12.35
2023-01-20T10:20:35.784Z,10.15
2023-01-20T10:23:06.086Z,13.77
2023-01-20T10:25:39.456Z,12.32
2023-01-20T10:28:14.899Z,8.95
2023-01-20T10:30:45.105Z,10.43
2023-01-20T10:33:16.345Z,10.88
2023-01-20T10:35:47.900Z,11.85
2023-01-20T10:38:21.987Z,13.10
2023-01-20T10:40:56.406Z,11.02
2023-01-20T10:43:24.119Z,8.40
2023-01-20T10:46:00.613Z,10.88
2023-01-20T10:48:28.204Z,13.73
2023-01-20T10:50:55.555Z,11.93
2023-01-20T10:53:26.135Z,9.07
2023-01-20T10:56:04.774Z,12.88
2023-01-20T10:58:34.651Z,12.32
2023-01-20T11:01:03.601Z,11.40
2023-01-20T11:03:35.016Z,9.15
2023-01-20T11:06:03.743Z,9.90
2023-01-20T11:08:31.405Z,13.65
2023-01-20T11:11:10.652Z,11.65
2023-01-20T11:13:38.155Z,13.88
2023-01-20T11:16:12.060Z,15.38
2023-01-20T11:18:39.600Z,15.48
2023-01-20T11:21:08.729Z,16.27
2023-01-20T11:23:39.174Z,14.88
2023-01-20T11:26:21.506Z,10.38
2023-01-20T11:28:49.018Z,14.60
2023-01-20T11:31:16.715Z,11.35
2023-01-20T11:33:57.817Z,12.32
2023-01-20T11:36:26.943Z,11.18
2023-01-20T11:38:55.493Z,10.32
2023-01-20T11:41:25.685Z,7.18
2023-01-20T11:43:55.536Z,10.63
2023-01-20T11:46:24.699Z,8.55
2023-01-20T11:49:06.479Z,8.77
2023-01-20T11:51:34.117Z,10.70
2023-01-20T11:54:09.501Z,10.27
2023-01-20T11:56:41.471Z,11.43
2023-01-20T11:59:39.177Z,9.23
2023-01-20T12:02:09.796Z,9.23
2023-01-20T12:04:37.385Z,11.95
2023-01-20T12:07:07.775Z,10.15
2023-01-20T12:09:38.373Z,17.48
2023-01-20T12:12:07.513Z,11.73
2023-01-20T12:14:44.057Z,10.07
2023-01-20T12:17:11.505Z,8.65
2023-01-20T12:19:41.907Z,9.13
2023-01-20T12:22:16.643Z,7.90
2023-01-20T12:25:07.499Z,8.80
2023-01-20T12:27:36.997Z,7.97
2023-01-20T12:30:12.064Z,5.15
2023-01-20T12:35:13.509Z,4.43
2023-01-20T12:37:57.303Z,4.43
2023-01-20T12:40:39.126Z,5.55
2023-01-20T12:43:18.927Z,6.72
2023-01-20T12:45:49.619Z,5.60
2023-01-20T12:48:20.196Z,7.72
2023-01-20T12:50:53.804Z,4.93
2023-01-20T12:53:31.125Z,8.38
2023-01-20T12:56:04.769Z,6.47
2023-01-20T12:58:39.991Z,8.40
2023-01-20T13:01:10.456Z,6.10
2023-01-20T13:03:37.989Z,5.80
2023-01-20T13:06:17.472Z,9.38
2023-01-20T13:09:05.320Z,8.77
2023-01-20T13:11:44.416Z,9.20
2023-01-20T13:14:12.057Z,6.70
2023-01-20T13:16:52.098Z,6.65
2023-01-20T13:19:19.667Z,8.30
2023-01-20T13:21:59.533Z,7.30
2023-01-20T13:24:35.125Z,11.40
2023-01-20T13:27:02.790Z,9.48
2023-01-20T13:29:37.101Z,10.27
2023-01-20T13:32:05.767Z,9.35
2023-01-20T13:34:34.443Z,6.03
2023-01-20T13:37:07.235Z,8.73
2023-01-20T13:39:42.473Z,11.80
2023-01-20T13:42:28.756Z,10.57
2023-01-20T13:45:15.199Z,8.88
2023-01-20T13:47:48.767Z,6.53
2023-01-20T13:50:27.532Z,8.52
2023-01-20T13:53:00.908Z,8.82
2023-01-20T13:55:50.169Z,7.38
2023-01-20T13:58:28.693Z,8.30
2023-01-20T14:00:56.164Z,7.35
2023-01-20T14:03:30.757Z,7.85
2023-01-20T14:06:02.809Z,6.97
2023-01-20T14:08:32.432Z,6.45
2023-01-20T14:11:12.406Z,7.45
2023-01-20T14:13:40.600Z,8.20
2023-01-20T14:16:18.471Z,8.13
2023-01-20T14:18:46.073Z,11.10
2023-01-20T14:21:19.304Z,8.82
2023-01-20T14:23:46.919Z,11.45
2023-01-20T14:26:16.314Z,7.22
2023-01-20T14:28:48.200Z,7.28
2023-01-20T14:31:22.775Z,7.57
2023-01-20T14:33:55.980Z,6.97
2023-01-20T14:36:24.053Z,7.93
2023-01-20T14:38:58.237Z,8.27
2023-01-20T14:41:26.026Z,9.63
2023-01-20T14:43:53.520Z,11.70
2023-01-20T14:46:21.117Z,8.75
2023-01-20T14:48:49.247Z,8.95
2023-01-20T14:51:16.829Z,6.15
2023-01-20T14:53:44.355Z,6.63
2023-01-20T14:56:18.400Z,8.77
2023-01-20T14:58:46.882Z,6.90
2023-01-20T15:01:32.407Z,6.07
2023-01-20T15:06:27.513Z,5.05
2023-01-20T15:09:06.752Z,6.93
2023-01-20T15:11:35.691Z,8.75
2023-01-20T15:14:05.911Z,6.10
2023-01-20T15:16:44.727Z,10.25
2023-01-20T15:19:15.383Z,10.80
2023-01-20T15:21:58.797Z,12.00
2023-01-20T15:24:30.796Z,9.75
2023-01-20T15:27:00.596Z,11.68
2023-01-20T15:29:35.595Z,11.10
2023-01-20T15:32:10.030Z,9.88
2023-01-20T15:34:37.521Z,14.23
2023-01-20T15:37:10.236Z,9.68
2023-01-20T15:39:37.735Z,7.63
2023-01-20T15:42:07.069Z,8.40
2023-01-20T15:44:34.491Z,6.70
2023-01-20T15:47:01.959Z,7.13
2023-01-20T15:49:29.432Z,15.15
2023-01-20T15:51:56.855Z,9.50
2023-01-20T15:54:24.386Z,7.53
2023-01-20T15:56:51.834Z,8.10
2023-01-20T15:59:22.853Z,7.07
2023-01-20T16:01:50.690Z,4.90
2023-01-20T16:04:18.361Z,5.97
2023-01-20T16:06:45.965Z,7.40
2023-01-20T16:09:19.697Z,7.80
2023-01-20T16:11:47.682Z,8.13
2023-01-20T16:14:15.103Z,11.35
2023-01-20T16:16:42.564Z,10.13
2023-01-20T16:19:13.162Z,9.82
2023-01-20T16:21:40.674Z,7.32
2023-01-20T16:24:08.268Z,8.82
2023-01-20T16:26:36.103Z,8.43
2023-01-20T16:29:04.806Z,8.40
2023-01-20T16:31:33.583Z,10.23
2023-01-20T16:34:01.149Z,6.97
2023-01-20T16:36:28.643Z,9.10
2023-01-20T16:38:56.376Z,25.20
2023-01-20T16:41:24.717Z,11.40
2023-01-20T16:43:53.078Z,5.95
2023-01-20T16:46:21.873Z,6.38
2023-01-20T16:48:49.377Z,4.10
2023-01-20T16:51:17.986Z,5.28
2023-01-20T16:53:45.480Z,2.70
2023-01-20T16:56:16.755Z,2.25
2023-01-20T16:58:44.652Z,2.25
2023-01-20T17:01:12.357Z,2.45
2023-01-20T17:03:40.436Z,2.30
2023-01-20T17:06:17.411Z,2.35
2023-01-20T17:08:46.007Z,2.50
2023-01-20T17:11:23.924Z,2.97
2023-01-20T17:13:51.835Z,3.00
2023-01-20T17:16:19.791Z,2.78
2023-01-20T17:18:50.949Z,3.28
2023-01-20T17:21:20.660Z,5.85
2023-01-20T17:23:55.201Z,4.97
2023-01-20T17:26:22.932Z,5.20
2023-01-20T17:28:50.517Z,5.13
2023-01-20T17:31:18.014Z,6.68
2023-01-20T17:33:48.576Z,6.13
2023-01-20T17:36:18.808Z,4.65
2023-01-20T17:38:46.623Z,3.15
2023-01-20T17:41:15.103Z,2.65
2023-01-20T17:43:46.644Z,2.95
2023-01-20T17:46:18.782Z,2.45
2023-01-20T17:48:46.761Z,2.05
2023-01-20T17:51:15.405Z,2.75
2023-01-20T17:53:43.613Z,2.97
2023-01-20T17:56:13.585Z,3.65
2023-01-20T17:58:42.138Z,3.25
2023-01-20T18:01:19.889Z,2.72
2023-01-20T18:03:48.552Z,3.42
2023-01-20T18:06:17.305Z,2.00
2023-01-20T18:08:45.123Z,3.53
2023-01-20T18:11:15.241Z,3.38
2023-01-20T18:13:45.678Z,2.72
2023-01-20T18:16:14.162Z,3.55
2023-01-20T18:18:43.339Z,3.88
2023-01-20T18:21:15.434Z,4.22
2023-01-20T18:23:43.467Z,4.65
2023-01-20T18:26:11.177Z,3.35
2023-01-20T18:28:38.788Z,4.68
2023-01-20T18:31:10.568Z,4.13
2023-01-20T18:33:39.986Z,4.07
2023-01-20T18:36:08.875Z,3.97
2023-01-20T18:38:36.356Z,4.60
2023-01-20T18:41:04.091Z,4.72
2023-01-20T18:43:31.627Z,3.05
2023-01-20T18:46:00.417Z,3.78
2023-01-20T18:48:27.903Z,2.97
2023-01-20T18:51:01.726Z,2.42
2023-01-20T18:53:29.747Z,3.42
2023-01-20T18:56:03.967Z,2.50
2023-01-20T18:58:31.462Z,4.63
2023-01-20T19:01:05.941Z,3.63
2023-01-20T19:03:33.951Z,3.30
2023-01-20T19:06:11.042Z,3.30
2023-01-20T19:08:39.582Z,3.17
2023-01-20T19:11:12.941Z,2.70
2023-01-20T19:13:41.459Z,4.45
2023-01-20T19:16:10.563Z,3.55
2023-01-20T19:18:38.118Z,3.53
2023-01-20T19:21:06.267Z,2.97
2023-01-20T19:23:33.808Z,3.50
2023-01-20T19:26:02.076Z,3.33
2023-01-20T19:28:29.515Z,4.07
2023-01-20T19:30:57.099Z,2.90
2023-01-20T19:33:24.685Z,3.85
2023-01-20T19:35:52.063Z,4.25
2023-01-20T19:38:19.540Z,4.10
2023-01-20T19:40:47.035Z,3.10
2023-01-20T19:43:14.753Z,4.43
2023-01-20T19:45:45.827Z,4.07
2023-01-20T19:48:13.704Z,3.92
2023-01-20T19:50:41.965Z,3.55
2023-01-20T19:53:09.435Z,3.75
2023-01-20T19:55:36.912Z,3.47
2023-01-20T19:58:06.272Z,3.53
2023-01-20T20:00:33.718Z,3.78
2023-01-20T20:03:02.939Z,3.67
2023-01-20T20:05:30.426Z,3.55
2023-01-20T20:07:59.524Z,3.60
2023-01-20T20:10:27.011Z,4.38
2023-01-20T20:12:54.692Z,6.18
2023-01-20T20:15:22.244Z,5.60
2023-01-20T20:17:49.668Z,5.18
2023-01-20T20:20:17.516Z,7.60
2023-01-20T20:22:45.032Z,7.30
2023-01-20T20:25:12.519Z,7.05
2023-01-20T20:27:39.933Z,7.32
2023-01-20T20:30:08.611Z,7.65
2023-01-20T20:32:36.033Z,7.60
2023-01-20T20:35:03.667Z,7.75
2023-01-20T20:37:31.077Z,8.23
2023-01-20T20:39:58.545Z,9.07
2023-01-20T20:42:27.305Z,9.13
2023-01-20T20:44:54.814Z,11.45
2023-01-20T20:47:22.227Z,10.38
2023-01-20T20:49:49.667Z,10.85
2023-01-20T20:52:17.061Z,10.57
2023-01-20T20:54:44.512Z,11.27
2023-01-20T20:57:12.183Z,10.93
2023-01-20T20:59:57.623Z,11.00
2023-01-20T21:02:26.268Z,11.20
2023-01-20T21:04:55.025Z,11.90
2023-01-20T21:07:22.548Z,10.98
2023-01-20T21:09:50.012Z,11.48
2023-01-20T21:12:18.056Z,12.85
2023-01-20T21:14:45.455Z,13.10
2023-01-20T21:17:13.053Z,12.95
2023-01-20T21:19:40.491Z,12.73
2023-01-20T21:22:08.350Z,11.85
2023-01-20T21:24:35.789Z,11.55
2023-01-20T21:27:03.304Z,10.45
2023-01-20T21:29:30.715Z,14.23
2023-01-20T21:31:58.373Z,12.50
2023-01-20T21:34:26.084Z,12.32
2023-01-20T21:36:53.533Z,12.63
2023-01-20T21:39:21.092Z,13.07
2023-01-20T21:41:48.586Z,13.93
2023-01-20T21:44:28.460Z,13.73
2023-01-20T21:47:08.006Z,15.30
2023-01-20T21:49:54.539Z,14.55
2023-01-20T21:52:41.645Z,14.43
2023-01-20T21:55:13.597Z,14.02
2023-01-20T21:57:41.105Z,13.80
2023-01-20T22:00:09.820Z,12.80
2023-01-20T22:02:40.956Z,14.02
2023-01-20T22:05:08.720Z,14.13
2023-01-20T22:07:36.128Z,14.13
2023-01-20T22:10:03.911Z,14.25
2023-01-20T22:12:34.600Z,14.20
2023-01-20T22:15:03.452Z,15.73
2023-01-20T22:17:31.267Z,14.13
2023-01-20T22:19:59.596Z,14.98
2023-01-20T22:22:27.096Z,14.90
2023-01-20T22:24:54.612Z,15.65
2023-01-20T22:27:22.151Z,18.00
2023-01-20T22:29:49.683Z,18.38
2023-01-20T22:32:17.148Z,13.73
2023-01-20T22:34:44.594Z,15.80
2023-01-20T22:37:11.996Z,14.00
2023-01-20T22:39:39.512Z,15.13
2023-01-20T22:42:07.646Z,16.30
2023-01-20T22:44:35.315Z,15.02
2023-01-20T22:47:05.204Z,13.30
2023-01-20T22:49:32.719Z,14.35
2023-01-20T22:52:00.145Z,14.70
2023-01-20T22:54:27.608Z,14.63
2023-01-20T22:56:55.011Z,13.65
2023-01-20T22:59:22.536Z,13.30
2023-01-20T23:01:50.005Z,14.98
2023-01-20T23:04:17.501Z,15.00
2023-01-20T23:06:44.888Z,14.73
2023-01-20T23:09:14.480Z,14.93
2023-01-20T23:11:42.139Z,16.40
2023-01-20T23:14:12.966Z,15.25
2023-01-20T23:16:41.211Z,14.02
2023-01-20T23:19:08.776Z,12.98
2023-01-20T23:21:36.282Z,16.83
2023-01-20T23:24:03.751Z,17.10
2023-01-20T23:26:31.446Z,14.98
2023-01-20T23:28:59.092Z,17.13
2023-01-20T23:31:28.705Z,14.25
2023-01-20T23:33:56.339Z,15.25
2023-01-20T23:36:25.269Z,14.18
2023-01-20T23:38:56.694Z,14.13
2023-01-20T23:41:24.861Z,15.48
2023-01-20T23:43:52.324Z,15.10
2023-01-20T23:46:19.832Z,13.55
2023-01-20T23:48:47.634Z,15.50
2023-01-20T23:51:15.562Z,14.68
2023-01-20T23:53:43.377Z,14.35
2023-01-20T23:56:12.914Z,13.43
2023-01-20T23:58:40.675Z,12.70
